sensor_id;sensor_type;location;lat;lon;timestamp;P1;durP1;ratioP1;P2;durP2;ratioP2
70169;SDS011;57543;45.442;9.212;2023-07-24T00:02:05;16.00;;;8.10;;
70169;SDS011;57543;45.442;9.212;2023-07-24T00:05:08;14.52;;;7.03;;
70169;SDS011;57543;45.442;9.212;2023-07-24T00:08:14;16.73;;;8.00;;
70169;SDS011;57543;45.442;9.212;2023-07-24T00:11:18;17.17;;;7.70;;
70169;SDS011;57543;45.442;9.212;2023-07-24T00:14:22;16.40;;;7.47;;
70169;SDS011;57543;45.442;9.212;2023-07-24T00:17:26;17.17;;;7.72;;
70169;SDS011;57543;45.442;9.212;2023-07-24T00:20:29;15.82;;;7.65;;
70169;SDS011;57543;45.442;9.212;2023-07-24T00:23:33;18.17;;;8.27;;
70169;SDS011;57543;45.442;9.212;2023-07-24T00:26:36;15.20;;;7.47;;
70169;SDS011;57543;45.442;9.212;2023-07-24T00:29:40;16.52;;;7.75;;
70169;SDS011;57543;45.442;9.212;2023-07-24T00:32:43;15.10;;;8.23;;
70169;SDS011;57543;45.442;9.212;2023-07-24T00:35:50;16.33;;;7.80;;
70169;SDS011;57543;45.442;9.212;2023-07-24T00:38:54;15.60;;;7.47;;
70169;SDS011;57543;45.442;9.212;2023-07-24T00:41:58;15.52;;;7.78;;
70169;SDS011;57543;45.442;9.212;2023-07-24T00:45:02;16.83;;;7.70;;
70169;SDS011;57543;45.442;9.212;2023-07-24T00:48:05;15.88;;;7.57;;
70169;SDS011;57543;45.442;9.212;2023-07-24T00:51:09;15.20;;;8.15;;
70169;SDS011;57543;45.442;9.212;2023-07-24T00:54:13;14.87;;;8.07;;
70169;SDS011;57543;45.442;9.212;2023-07-24T00:57:21;17.38;;;8.98;;
70169;SDS011;57543;45.442;9.212;2023-07-24T01:00:26;16.92;;;8.68;;
70169;SDS011;57543;45.442;9.212;2023-07-24T01:03:34;14.82;;;8.50;;
70169;SDS011;57543;45.442;9.212;2023-07-24T01:06:40;14.55;;;8.75;;
70169;SDS011;57543;45.442;9.212;2023-07-24T01:09:43;16.90;;;9.10;;
70169;SDS011;57543;45.442;9.212;2023-07-24T01:16:18;16.30;;;9.10;;
70169;SDS011;57543;45.442;9.212;2023-07-24T01:19:33;18.88;;;9.18;;
70169;SDS011;57543;45.442;9.212;2023-07-24T01:26:09;18.70;;;10.30;;
70169;SDS011;57543;45.442;9.212;2023-07-24T01:29:13;18.05;;;9.40;;
70169;SDS011;57543;45.442;9.212;2023-07-24T01:32:17;17.55;;;9.90;;
70169;SDS011;57543;45.442;9.212;2023-07-24T01:35:22;17.13;;;10.10;;
70169;SDS011;57543;45.442;9.212;2023-07-24T01:38:27;16.58;;;9.60;;
70169;SDS011;57543;45.442;9.212;2023-07-24T01:41:31;16.70;;;9.10;;
70169;SDS011;57543;45.442;9.212;2023-07-24T01:44:34;16.35;;;9.55;;
70169;SDS011;57543;45.442;9.212;2023-07-24T01:47:38;18.60;;;9.90;;
70169;SDS011;57543;45.442;9.212;2023-07-24T01:50:43;17.38;;;9.93;;
70169;SDS011;57543;45.442;9.212;2023-07-24T01:53:46;18.48;;;9.50;;
70169;SDS011;57543;45.442;9.212;2023-07-24T01:56:50;18.30;;;10.03;;
70169;SDS011;57543;45.442;9.212;2023-07-24T01:59:54;17.92;;;10.15;;
70169;SDS011;57543;45.442;9.212;2023-07-24T02:02:58;17.90;;;10.55;;
70169;SDS011;57543;45.442;9.212;2023-07-24T02:06:02;18.95;;;10.13;;
70169;SDS011;57543;45.442;9.212;2023-07-24T02:09:06;17.85;;;11.00;;
70169;SDS011;57543;45.442;9.212;2023-07-24T02:12:09;17.20;;;10.37;;
70169;SDS011;57543;45.442;9.212;2023-07-24T02:15:13;15.93;;;9.93;;
70169;SDS011;57543;45.442;9.212;2023-07-24T02:18:17;16.70;;;10.25;;
70169;SDS011;57543;45.442;9.212;2023-07-24T02:21:21;17.73;;;9.75;;
70169;SDS011;57543;45.442;9.212;2023-07-24T02:24:25;17.52;;;10.40;;
70169;SDS011;57543;45.442;9.212;2023-07-24T02:27:30;20.10;;;10.40;;
70169;SDS011;57543;45.442;9.212;2023-07-24T02:30:38;16.48;;;10.02;;
70169;SDS011;57543;45.442;9.212;2023-07-24T02:33:43;18.45;;;10.10;;
70169;SDS011;57543;45.442;9.212;2023-07-24T02:36:46;17.38;;;10.68;;
70169;SDS011;57543;45.442;9.212;2023-07-24T02:39:51;18.13;;;9.90;;
70169;SDS011;57543;45.442;9.212;2023-07-24T02:42:55;15.80;;;9.93;;
70169;SDS011;57543;45.442;9.212;2023-07-24T02:46:02;16.67;;;9.50;;
70169;SDS011;57543;45.442;9.212;2023-07-24T02:49:05;15.18;;;9.15;;
70169;SDS011;57543;45.442;9.212;2023-07-24T02:52:09;18.67;;;9.63;;
70169;SDS011;57543;45.442;9.212;2023-07-24T02:55:13;16.02;;;9.63;;
70169;SDS011;57543;45.442;9.212;2023-07-24T02:58:16;17.63;;;9.73;;
70169;SDS011;57543;45.442;9.212;2023-07-24T03:01:21;17.17;;;9.75;;
70169;SDS011;57543;45.442;9.212;2023-07-24T03:04:24;18.58;;;10.30;;
70169;SDS011;57543;45.442;9.212;2023-07-24T03:07:28;17.38;;;10.32;;
70169;SDS011;57543;45.442;9.212;2023-07-24T03:10:32;16.45;;;10.07;;
70169;SDS011;57543;45.442;9.212;2023-07-24T03:13:36;16.73;;;10.17;;
70169;SDS011;57543;45.442;9.212;2023-07-24T03:16:39;16.38;;;9.82;;
70169;SDS011;57543;45.442;9.212;2023-07-24T03:19:43;16.17;;;9.55;;
70169;SDS011;57543;45.442;9.212;2023-07-24T03:22:46;16.45;;;9.85;;
70169;SDS011;57543;45.442;9.212;2023-07-24T03:25:49;15.30;;;9.55;;
70169;SDS011;57543;45.442;9.212;2023-07-24T03:28:54;18.10;;;10.00;;
70169;SDS011;57543;45.442;9.212;2023-07-24T03:31:57;15.85;;;9.93;;
70169;SDS011;57543;45.442;9.212;2023-07-24T03:35:02;16.20;;;9.50;;
70169;SDS011;57543;45.442;9.212;2023-07-24T03:38:06;16.75;;;9.65;;
70169;SDS011;57543;45.442;9.212;2023-07-24T03:41:09;16.95;;;9.90;;
70169;SDS011;57543;45.442;9.212;2023-07-24T03:44:15;20.30;;;10.10;;
70169;SDS011;57543;45.442;9.212;2023-07-24T03:47:19;17.52;;;11.20;;
70169;SDS011;57543;45.442;9.212;2023-07-24T03:50:22;18.50;;;10.20;;
70169;SDS011;57543;45.442;9.212;2023-07-24T03:53:25;17.77;;;9.93;;
70169;SDS011;57543;45.442;9.212;2023-07-24T03:56:29;16.60;;;10.05;;
70169;SDS011;57543;45.442;9.212;2023-07-24T03:59:33;16.53;;;9.43;;
70169;SDS011;57543;45.442;9.212;2023-07-24T04:02:36;17.58;;;9.90;;
70169;SDS011;57543;45.442;9.212;2023-07-24T04:05:39;17.85;;;10.00;;
70169;SDS011;57543;45.442;9.212;2023-07-24T04:08:43;17.77;;;9.57;;
70169;SDS011;57543;45.442;9.212;2023-07-24T04:11:46;18.13;;;10.68;;
70169;SDS011;57543;45.442;9.212;2023-07-24T04:14:50;16.80;;;10.27;;
70169;SDS011;57543;45.442;9.212;2023-07-24T04:17:54;14.95;;;9.82;;
70169;SDS011;57543;45.442;9.212;2023-07-24T04:20:57;18.05;;;10.35;;
70169;SDS011;57543;45.442;9.212;2023-07-24T04:24:00;17.00;;;9.45;;
70169;SDS011;57543;45.442;9.212;2023-07-24T04:27:04;19.90;;;10.30;;
70169;SDS011;57543;45.442;9.212;2023-07-24T04:30:08;17.90;;;9.83;;
70169;SDS011;57543;45.442;9.212;2023-07-24T04:33:12;17.50;;;10.10;;
70169;SDS011;57543;45.442;9.212;2023-07-24T04:36:17;17.98;;;10.50;;
70169;SDS011;57543;45.442;9.212;2023-07-24T04:39:24;15.60;;;9.15;;
70169;SDS011;57543;45.442;9.212;2023-07-24T04:42:28;16.00;;;9.98;;
70169;SDS011;57543;45.442;9.212;2023-07-24T04:45:31;17.37;;;9.60;;
70169;SDS011;57543;45.442;9.212;2023-07-24T04:48:34;17.00;;;9.43;;
70169;SDS011;57543;45.442;9.212;2023-07-24T04:51:38;16.73;;;9.75;;
70169;SDS011;57543;45.442;9.212;2023-07-24T04:54:42;16.85;;;9.82;;
70169;SDS011;57543;45.442;9.212;2023-07-24T04:57:46;16.90;;;9.57;;
70169;SDS011;57543;45.442;9.212;2023-07-24T05:00:50;16.57;;;9.53;;
70169;SDS011;57543;45.442;9.212;2023-07-24T05:03:53;19.40;;;10.32;;
70169;SDS011;57543;45.442;9.212;2023-07-24T05:06:56;19.67;;;10.38;;
70169;SDS011;57543;45.442;9.212;2023-07-24T05:10:00;21.10;;;11.02;;
70169;SDS011;57543;45.442;9.212;2023-07-24T05:13:04;22.05;;;10.88;;
70169;SDS011;57543;45.442;9.212;2023-07-24T05:16:08;19.73;;;10.87;;
70169;SDS011;57543;45.442;9.212;2023-07-24T05:19:12;19.92;;;11.00;;
70169;SDS011;57543;45.442;9.212;2023-07-24T05:22:15;20.63;;;11.02;;
70169;SDS011;57543;45.442;9.212;2023-07-24T05:25:19;23.95;;;10.75;;
70169;SDS011;57543;45.442;9.212;2023-07-24T05:28:22;20.75;;;9.88;;
70169;SDS011;57543;45.442;9.212;2023-07-24T05:31:26;19.27;;;10.70;;
70169;SDS011;57543;45.442;9.212;2023-07-24T05:34:29;18.67;;;9.45;;
70169;SDS011;57543;45.442;9.212;2023-07-24T05:37:33;16.20;;;9.02;;
70169;SDS011;57543;45.442;9.212;2023-07-24T05:40:37;20.90;;;10.00;;
70169;SDS011;57543;45.442;9.212;2023-07-24T05:43:41;18.88;;;10.15;;
70169;SDS011;57543;45.442;9.212;2023-07-24T05:46:44;17.83;;;10.20;;
70169;SDS011;57543;45.442;9.212;2023-07-24T05:49:48;19.55;;;10.40;;
70169;SDS011;57543;45.442;9.212;2023-07-24T05:52:52;20.08;;;10.98;;
70169;SDS011;57543;45.442;9.212;2023-07-24T05:55:56;23.50;;;11.30;;
70169;SDS011;57543;45.442;9.212;2023-07-24T05:59:01;19.90;;;11.57;;
70169;SDS011;57543;45.442;9.212;2023-07-24T06:02:04;22.90;;;11.63;;
70169;SDS011;57543;45.442;9.212;2023-07-24T06:05:08;23.48;;;12.80;;
70169;SDS011;57543;45.442;9.212;2023-07-24T06:08:12;20.55;;;10.88;;
70169;SDS011;57543;45.442;9.212;2023-07-24T06:11:16;22.33;;;12.10;;
70169;SDS011;57543;45.442;9.212;2023-07-24T06:14:20;18.83;;;9.77;;
70169;SDS011;57543;45.442;9.212;2023-07-24T06:17:24;21.33;;;11.90;;
70169;SDS011;57543;45.442;9.212;2023-07-24T06:20:27;20.23;;;10.93;;
70169;SDS011;57543;45.442;9.212;2023-07-24T06:23:30;19.30;;;9.23;;
70169;SDS011;57543;45.442;9.212;2023-07-24T06:26:34;17.02;;;8.85;;
70169;SDS011;57543;45.442;9.212;2023-07-24T06:29:37;19.17;;;10.13;;
70169;SDS011;57543;45.442;9.212;2023-07-24T06:32:41;24.57;;;11.67;;
70169;SDS011;57543;45.442;9.212;2023-07-24T06:35:45;21.77;;;11.50;;
70169;SDS011;57543;45.442;9.212;2023-07-24T06:38:48;23.70;;;11.95;;
70169;SDS011;57543;45.442;9.212;2023-07-24T06:41:52;20.13;;;11.95;;
70169;SDS011;57543;45.442;9.212;2023-07-24T06:44:55;20.83;;;10.10;;
70169;SDS011;57543;45.442;9.212;2023-07-24T06:47:59;19.37;;;10.50;;
70169;SDS011;57543;45.442;9.212;2023-07-24T06:51:03;20.17;;;11.50;;
70169;SDS011;57543;45.442;9.212;2023-07-24T06:54:07;22.23;;;11.13;;
70169;SDS011;57543;45.442;9.212;2023-07-24T06:57:10;17.02;;;9.20;;
70169;SDS011;57543;45.442;9.212;2023-07-24T07:00:14;22.70;;;10.45;;
70169;SDS011;57543;45.442;9.212;2023-07-24T07:03:18;23.60;;;11.80;;
70169;SDS011;57543;45.442;9.212;2023-07-24T07:06:22;20.30;;;10.88;;
70169;SDS011;57543;45.442;9.212;2023-07-24T07:09:25;26.33;;;12.05;;
70169;SDS011;57543;45.442;9.212;2023-07-24T07:12:29;24.30;;;12.52;;
70169;SDS011;57543;45.442;9.212;2023-07-24T07:15:33;26.25;;;12.43;;
70169;SDS011;57543;45.442;9.212;2023-07-24T07:18:36;24.37;;;12.97;;
70169;SDS011;57543;45.442;9.212;2023-07-24T07:21:40;20.95;;;11.20;;
70169;SDS011;57543;45.442;9.212;2023-07-24T07:24:44;22.08;;;12.30;;
70169;SDS011;57543;45.442;9.212;2023-07-24T07:27:52;25.45;;;12.40;;
70169;SDS011;57543;45.442;9.212;2023-07-24T07:30:56;22.95;;;13.35;;
70169;SDS011;57543;45.442;9.212;2023-07-24T07:33:59;21.00;;;12.20;;
70169;SDS011;57543;45.442;9.212;2023-07-24T07:37:03;24.63;;;12.57;;
70169;SDS011;57543;45.442;9.212;2023-07-24T07:40:07;22.73;;;13.15;;
70169;SDS011;57543;45.442;9.212;2023-07-24T07:43:11;20.90;;;10.05;;
70169;SDS011;57543;45.442;9.212;2023-07-24T07:46:15;19.13;;;10.13;;
70169;SDS011;57543;45.442;9.212;2023-07-24T07:49:18;20.17;;;10.27;;
70169;SDS011;57543;45.442;9.212;2023-07-24T07:52:22;21.38;;;11.00;;
70169;SDS011;57543;45.442;9.212;2023-07-24T07:55:25;21.65;;;12.25;;
70169;SDS011;57543;45.442;9.212;2023-07-24T07:58:29;20.75;;;9.63;;
70169;SDS011;57543;45.442;9.212;2023-07-24T08:01:35;16.73;;;9.70;;
70169;SDS011;57543;45.442;9.212;2023-07-24T08:04:39;19.53;;;11.00;;
70169;SDS011;57543;45.442;9.212;2023-07-24T08:07:45;25.25;;;12.40;;
70169;SDS011;57543;45.442;9.212;2023-07-24T08:10:51;22.38;;;11.75;;
70169;SDS011;57543;45.442;9.212;2023-07-24T08:13:54;25.67;;;11.32;;
70169;SDS011;57543;45.442;9.212;2023-07-24T08:16:58;19.25;;;10.30;;
70169;SDS011;57543;45.442;9.212;2023-07-24T08:20:02;19.40;;;11.33;;
70169;SDS011;57543;45.442;9.212;2023-07-24T08:23:06;21.05;;;11.10;;
70169;SDS011;57543;45.442;9.212;2023-07-24T08:26:09;17.40;;;9.63;;
70169;SDS011;57543;45.442;9.212;2023-07-24T08:29:13;18.67;;;9.80;;
70169;SDS011;57543;45.442;9.212;2023-07-24T08:32:16;16.83;;;9.00;;
70169;SDS011;57543;45.442;9.212;2023-07-24T08:35:19;19.30;;;9.40;;
70169;SDS011;57543;45.442;9.212;2023-07-24T08:38:23;17.60;;;9.25;;
70169;SDS011;57543;45.442;9.212;2023-07-24T08:41:28;19.65;;;10.45;;
70169;SDS011;57543;45.442;9.212;2023-07-24T08:44:32;17.73;;;9.07;;
70169;SDS011;57543;45.442;9.212;2023-07-24T08:47:35;18.55;;;10.27;;
70169;SDS011;57543;45.442;9.212;2023-07-24T08:50:39;18.73;;;10.27;;
70169;SDS011;57543;45.442;9.212;2023-07-24T08:53:43;17.38;;;9.50;;
70169;SDS011;57543;45.442;9.212;2023-07-24T08:56:46;16.45;;;9.30;;
70169;SDS011;57543;45.442;9.212;2023-07-24T08:59:53;19.58;;;10.10;;
70169;SDS011;57543;45.442;9.212;2023-07-24T09:02:56;22.30;;;11.90;;
70169;SDS011;57543;45.442;9.212;2023-07-24T09:06:00;21.02;;;10.48;;
70169;SDS011;57543;45.442;9.212;2023-07-24T09:09:13;20.98;;;11.38;;
70169;SDS011;57543;45.442;9.212;2023-07-24T09:12:18;21.80;;;10.82;;
70169;SDS011;57543;45.442;9.212;2023-07-24T09:15:21;23.25;;;11.48;;
70169;SDS011;57543;45.442;9.212;2023-07-24T09:18:25;23.75;;;11.57;;
70169;SDS011;57543;45.442;9.212;2023-07-24T09:21:30;22.73;;;11.47;;
70169;SDS011;57543;45.442;9.212;2023-07-24T09:24:35;22.08;;;11.57;;
70169;SDS011;57543;45.442;9.212;2023-07-24T09:27:38;22.88;;;12.45;;
70169;SDS011;57543;45.442;9.212;2023-07-24T09:30:56;22.67;;;12.65;;
70169;SDS011;57543;45.442;9.212;2023-07-24T09:34:01;22.60;;;12.15;;
70169;SDS011;57543;45.442;9.212;2023-07-24T09:37:05;24.83;;;13.17;;
70169;SDS011;57543;45.442;9.212;2023-07-24T09:40:10;22.90;;;13.40;;
70169;SDS011;57543;45.442;9.212;2023-07-24T09:43:15;20.63;;;12.20;;
70169;SDS011;57543;45.442;9.212;2023-07-24T09:46:19;20.77;;;12.60;;
70169;SDS011;57543;45.442;9.212;2023-07-24T09:49:23;19.50;;;11.95;;
70169;SDS011;57543;45.442;9.212;2023-07-24T09:52:27;23.03;;;13.33;;
70169;SDS011;57543;45.442;9.212;2023-07-24T09:55:35;26.10;;;13.32;;
70169;SDS011;57543;45.442;9.212;2023-07-24T09:58:48;25.00;;;13.68;;
70169;SDS011;57543;45.442;9.212;2023-07-24T10:01:57;24.33;;;13.00;;
70169;SDS011;57543;45.442;9.212;2023-07-24T10:05:03;26.38;;;12.75;;
70169;SDS011;57543;45.442;9.212;2023-07-24T10:08:09;22.57;;;13.17;;
70169;SDS011;57543;45.442;9.212;2023-07-24T10:11:14;17.33;;;10.80;;
70169;SDS011;57543;45.442;9.212;2023-07-24T10:14:18;20.60;;;11.73;;
70169;SDS011;57543;45.442;9.212;2023-07-24T10:17:37;20.85;;;10.23;;
70169;SDS011;57543;45.442;9.212;2023-07-24T10:20:42;16.33;;;9.60;;
70169;SDS011;57543;45.442;9.212;2023-07-24T10:23:46;24.13;;;12.70;;
70169;SDS011;57543;45.442;9.212;2023-07-24T10:26:54;20.65;;;11.40;;
70169;SDS011;57543;45.442;9.212;2023-07-24T10:30:02;18.60;;;11.38;;
70169;SDS011;57543;45.442;9.212;2023-07-24T10:33:10;17.35;;;9.85;;
70169;SDS011;57543;45.442;9.212;2023-07-24T10:36:19;18.92;;;10.50;;
70169;SDS011;57543;45.442;9.212;2023-07-24T10:39:25;18.73;;;11.20;;
70169;SDS011;57543;45.442;9.212;2023-07-24T10:42:28;21.58;;;11.90;;
70169;SDS011;57543;45.442;9.212;2023-07-24T10:45:50;20.58;;;10.10;;
70169;SDS011;57543;45.442;9.212;2023-07-24T10:48:55;20.90;;;10.38;;
70169;SDS011;57543;45.442;9.212;2023-07-24T10:52:04;16.35;;;8.93;;
70169;SDS011;57543;45.442;9.212;2023-07-24T10:55:07;14.63;;;8.60;;
70169;SDS011;57543;45.442;9.212;2023-07-24T10:58:11;17.63;;;8.75;;
70169;SDS011;57543;45.442;9.212;2023-07-24T11:01:15;16.85;;;8.88;;
70169;SDS011;57543;45.442;9.212;2023-07-24T11:04:20;16.70;;;8.63;;
70169;SDS011;57543;45.442;9.212;2023-07-24T11:07:24;16.13;;;8.98;;
70169;SDS011;57543;45.442;9.212;2023-07-24T11:10:28;17.40;;;9.37;;
70169;SDS011;57543;45.442;9.212;2023-07-24T11:13:33;19.80;;;9.55;;
70169;SDS011;57543;45.442;9.212;2023-07-24T11:16:47;17.05;;;9.02;;
70169;SDS011;57543;45.442;9.212;2023-07-24T11:19:51;14.95;;;8.65;;
70169;SDS011;57543;45.442;9.212;2023-07-24T11:22:57;15.52;;;8.32;;
70169;SDS011;57543;45.442;9.212;2023-07-24T11:26:01;16.73;;;9.33;;
70169;SDS011;57543;45.442;9.212;2023-07-24T11:29:11;26.27;;;10.65;;
70169;SDS011;57543;45.442;9.212;2023-07-24T11:32:22;16.92;;;8.57;;
70169;SDS011;57543;45.442;9.212;2023-07-24T11:35:25;19.20;;;9.50;;
70169;SDS011;57543;45.442;9.212;2023-07-24T11:38:32;19.48;;;9.00;;
70169;SDS011;57543;45.442;9.212;2023-07-24T11:41:38;21.87;;;9.30;;
70169;SDS011;57543;45.442;9.212;2023-07-24T11:44:42;21.00;;;9.50;;
70169;SDS011;57543;45.442;9.212;2023-07-24T11:47:47;20.60;;;9.70;;
70169;SDS011;57543;45.442;9.212;2023-07-24T11:50:56;23.25;;;9.93;;
70169;SDS011;57543;45.442;9.212;2023-07-24T11:54:10;19.90;;;9.60;;
70169;SDS011;57543;45.442;9.212;2023-07-24T11:57:15;19.30;;;9.07;;
70169;SDS011;57543;45.442;9.212;2023-07-24T12:00:22;18.52;;;9.57;;
70169;SDS011;57543;45.442;9.212;2023-07-24T12:03:26;19.10;;;10.27;;
70169;SDS011;57543;45.442;9.212;2023-07-24T12:06:31;18.20;;;7.97;;
70169;SDS011;57543;45.442;9.212;2023-07-24T12:09:35;17.65;;;7.32;;
70169;SDS011;57543;45.442;9.212;2023-07-24T12:12:43;13.47;;;6.47;;
70169;SDS011;57543;45.442;9.212;2023-07-24T12:15:48;11.32;;;6.10;;
70169;SDS011;57543;45.442;9.212;2023-07-24T12:18:52;12.35;;;4.88;;
70169;SDS011;57543;45.442;9.212;2023-07-24T12:21:56;9.75;;;4.40;;
70169;SDS011;57543;45.442;9.212;2023-07-24T12:24:59;9.02;;;4.43;;
70169;SDS011;57543;45.442;9.212;2023-07-24T12:28:03;8.20;;;3.77;;
70169;SDS011;57543;45.442;9.212;2023-07-24T12:31:07;8.23;;;4.22;;
70169;SDS011;57543;45.442;9.212;2023-07-24T12:34:11;8.07;;;3.33;;
70169;SDS011;57543;45.442;9.212;2023-07-24T12:37:15;8.82;;;3.20;;
70169;SDS011;57543;45.442;9.212;2023-07-24T12:40:20;8.05;;;3.35;;
70169;SDS011;57543;45.442;9.212;2023-07-24T12:43:27;7.37;;;3.90;;
70169;SDS011;57543;45.442;9.212;2023-07-24T12:46:30;7.90;;;3.65;;
70169;SDS011;57543;45.442;9.212;2023-07-24T12:49:34;7.95;;;4.13;;
70169;SDS011;57543;45.442;9.212;2023-07-24T12:52:38;9.35;;;4.10;;
70169;SDS011;57543;45.442;9.212;2023-07-24T12:55:41;9.20;;;4.30;;
70169;SDS011;57543;45.442;9.212;2023-07-24T12:58:45;9.20;;;5.03;;
70169;SDS011;57543;45.442;9.212;2023-07-24T13:01:49;11.93;;;5.47;;
70169;SDS011;57543;45.442;9.212;2023-07-24T13:04:53;12.85;;;5.85;;
70169;SDS011;57543;45.442;9.212;2023-07-24T13:07:56;11.57;;;5.40;;
70169;SDS011;57543;45.442;9.212;2023-07-24T13:11:05;9.73;;;5.00;;
70169;SDS011;57543;45.442;9.212;2023-07-24T13:14:08;11.83;;;5.57;;
70169;SDS011;57543;45.442;9.212;2023-07-24T13:17:12;9.45;;;4.88;;
70169;SDS011;57543;45.442;9.212;2023-07-24T13:20:16;9.35;;;4.90;;
70169;SDS011;57543;45.442;9.212;2023-07-24T13:23:22;13.38;;;5.70;;
70169;SDS011;57543;45.442;9.212;2023-07-24T13:26:26;11.52;;;5.13;;
70169;SDS011;57543;45.442;9.212;2023-07-24T13:29:30;10.90;;;4.80;;
70169;SDS011;57543;45.442;9.212;2023-07-24T13:32:34;11.93;;;5.40;;
70169;SDS011;57543;45.442;9.212;2023-07-24T13:35:37;9.68;;;5.00;;
70169;SDS011;57543;45.442;9.212;2023-07-24T13:38:41;10.77;;;5.38;;
70169;SDS011;57543;45.442;9.212;2023-07-24T13:41:45;12.48;;;5.85;;
70169;SDS011;57543;45.442;9.212;2023-07-24T13:44:48;13.23;;;6.20;;
70169;SDS011;57543;45.442;9.212;2023-07-24T13:47:51;14.77;;;6.05;;
70169;SDS011;57543;45.442;9.212;2023-07-24T13:50:55;13.60;;;6.07;;
70169;SDS011;57543;45.442;9.212;2023-07-24T13:53:58;13.52;;;6.40;;
70169;SDS011;57543;45.442;9.212;2023-07-24T13:57:03;12.20;;;6.07;;
70169;SDS011;57543;45.442;9.212;2023-07-24T14:00:07;12.07;;;5.93;;
70169;SDS011;57543;45.442;9.212;2023-07-24T14:03:15;11.63;;;5.95;;
70169;SDS011;57543;45.442;9.212;2023-07-24T14:06:18;12.82;;;6.45;;
70169;SDS011;57543;45.442;9.212;2023-07-24T14:09:22;12.20;;;6.10;;
70169;SDS011;57543;45.442;9.212;2023-07-24T14:12:25;13.02;;;6.05;;
70169;SDS011;57543;45.442;9.212;2023-07-24T14:15:32;10.73;;;6.10;;
70169;SDS011;57543;45.442;9.212;2023-07-24T14:18:36;10.95;;;5.68;;
70169;SDS011;57543;45.442;9.212;2023-07-24T14:21:39;13.55;;;6.25;;
70169;SDS011;57543;45.442;9.212;2023-07-24T14:24:45;10.70;;;5.72;;
70169;SDS011;57543;45.442;9.212;2023-07-24T14:27:49;11.68;;;5.97;;
70169;SDS011;57543;45.442;9.212;2023-07-24T14:30:53;10.03;;;5.37;;
70169;SDS011;57543;45.442;9.212;2023-07-24T14:33:57;10.98;;;5.65;;
70169;SDS011;57543;45.442;9.212;2023-07-24T14:37:00;10.40;;;5.47;;
70169;SDS011;57543;45.442;9.212;2023-07-24T14:40:04;11.05;;;5.18;;
70169;SDS011;57543;45.442;9.212;2023-07-24T14:43:08;9.43;;;5.00;;
70169;SDS011;57543;45.442;9.212;2023-07-24T14:46:12;10.07;;;5.30;;
70169;SDS011;57543;45.442;9.212;2023-07-24T14:49:15;10.85;;;5.30;;
70169;SDS011;57543;45.442;9.212;2023-07-24T14:52:19;12.07;;;5.40;;
70169;SDS011;57543;45.442;9.212;2023-07-24T14:55:23;10.63;;;5.20;;
70169;SDS011;57543;45.442;9.212;2023-07-24T14:58:26;9.32;;;5.03;;
70169;SDS011;57543;45.442;9.212;2023-07-24T15:01:29;10.40;;;5.50;;
70169;SDS011;57543;45.442;9.212;2023-07-24T15:04:33;10.65;;;5.07;;
70169;SDS011;57543;45.442;9.212;2023-07-24T15:07:37;9.25;;;4.93;;
70169;SDS011;57543;45.442;9.212;2023-07-24T15:10:41;10.70;;;5.32;;
70169;SDS011;57543;45.442;9.212;2023-07-24T15:13:44;12.15;;;5.55;;
70169;SDS011;57543;45.442;9.212;2023-07-24T15:16:47;11.27;;;5.47;;
70169;SDS011;57543;45.442;9.212;2023-07-24T15:19:51;10.75;;;5.40;;
70169;SDS011;57543;45.442;9.212;2023-07-24T15:22:55;10.82;;;5.32;;
70169;SDS011;57543;45.442;9.212;2023-07-24T15:25:59;11.20;;;5.07;;
70169;SDS011;57543;45.442;9.212;2023-07-24T15:29:02;9.35;;;4.78;;
70169;SDS011;57543;45.442;9.212;2023-07-24T15:32:06;12.50;;;5.27;;
70169;SDS011;57543;45.442;9.212;2023-07-24T15:35:10;11.57;;;5.28;;
70169;SDS011;57543;45.442;9.212;2023-07-24T15:38:14;13.82;;;4.90;;
70169;SDS011;57543;45.442;9.212;2023-07-24T15:41:17;9.30;;;4.57;;
70169;SDS011;57543;45.442;9.212;2023-07-24T15:44:21;11.40;;;5.50;;
70169;SDS011;57543;45.442;9.212;2023-07-24T15:47:24;9.70;;;5.23;;
70169;SDS011;57543;45.442;9.212;2023-07-24T15:50:29;10.23;;;5.20;;
70169;SDS011;57543;45.442;9.212;2023-07-24T15:53:33;13.63;;;5.10;;
70169;SDS011;57543;45.442;9.212;2023-07-24T15:56:40;11.18;;;5.20;;
70169;SDS011;57543;45.442;9.212;2023-07-24T15:59:44;8.80;;;4.50;;
70169;SDS011;57543;45.442;9.212;2023-07-24T16:02:48;9.70;;;4.97;;
70169;SDS011;57543;45.442;9.212;2023-07-24T16:05:51;10.23;;;4.70;;
70169;SDS011;57543;45.442;9.212;2023-07-24T16:08:54;10.40;;;5.00;;
70169;SDS011;57543;45.442;9.212;2023-07-24T16:11:58;10.50;;;4.97;;
70169;SDS011;57543;45.442;9.212;2023-07-24T16:15:02;8.65;;;4.70;;
70169;SDS011;57543;45.442;9.212;2023-07-24T16:18:06;11.07;;;5.47;;
70169;SDS011;57543;45.442;9.212;2023-07-24T16:21:10;10.70;;;5.00;;
70169;SDS011;57543;45.442;9.212;2023-07-24T16:24:13;12.95;;;5.63;;
70169;SDS011;57543;45.442;9.212;2023-07-24T16:27:21;13.00;;;5.85;;
70169;SDS011;57543;45.442;9.212;2023-07-24T16:30:25;11.25;;;5.75;;
70169;SDS011;57543;45.442;9.212;2023-07-24T16:33:28;12.00;;;6.47;;
70169;SDS011;57543;45.442;9.212;2023-07-24T16:36:32;11.27;;;5.95;;
70169;SDS011;57543;45.442;9.212;2023-07-24T16:39:38;11.13;;;6.30;;
70169;SDS011;57543;45.442;9.212;2023-07-24T16:42:41;11.52;;;6.07;;
70169;SDS011;57543;45.442;9.212;2023-07-24T16:45:46;12.00;;;6.32;;
70169;SDS011;57543;45.442;9.212;2023-07-24T16:48:52;10.73;;;5.73;;
70169;SDS011;57543;45.442;9.212;2023-07-24T16:51:56;11.82;;;6.13;;
70169;SDS011;57543;45.442;9.212;2023-07-24T16:55:02;11.55;;;5.97;;
70169;SDS011;57543;45.442;9.212;2023-07-24T16:58:07;12.68;;;6.72;;
70169;SDS011;57543;45.442;9.212;2023-07-24T17:01:12;12.52;;;6.82;;
70169;SDS011;57543;45.442;9.212;2023-07-24T17:04:16;13.70;;;6.83;;
70169;SDS011;57543;45.442;9.212;2023-07-24T17:07:21;12.88;;;6.72;;
70169;SDS011;57543;45.442;9.212;2023-07-24T17:10:24;16.35;;;7.18;;
70169;SDS011;57543;45.442;9.212;2023-07-24T17:13:30;14.18;;;6.95;;
70169;SDS011;57543;45.442;9.212;2023-07-24T17:16:34;14.07;;;6.68;;
70169;SDS011;57543;45.442;9.212;2023-07-24T17:19:38;14.33;;;6.73;;
70169;SDS011;57543;45.442;9.212;2023-07-24T17:22:41;12.75;;;7.30;;
70169;SDS011;57543;45.442;9.212;2023-07-24T17:25:45;14.50;;;7.25;;
70169;SDS011;57543;45.442;9.212;2023-07-24T17:28:49;13.45;;;7.30;;
70169;SDS011;57543;45.442;9.212;2023-07-24T17:31:53;13.80;;;7.45;;
70169;SDS011;57543;45.442;9.212;2023-07-24T17:34:57;14.37;;;7.33;;
70169;SDS011;57543;45.442;9.212;2023-07-24T17:38:01;11.65;;;6.32;;
70169;SDS011;57543;45.442;9.212;2023-07-24T17:41:04;14.65;;;6.75;;
70169;SDS011;57543;45.442;9.212;2023-07-24T17:44:09;17.02;;;7.10;;
70169;SDS011;57543;45.442;9.212;2023-07-24T17:47:12;12.23;;;7.18;;
70169;SDS011;57543;45.442;9.212;2023-07-24T17:50:16;11.97;;;5.90;;
70169;SDS011;57543;45.442;9.212;2023-07-24T17:53:20;13.52;;;6.18;;
70169;SDS011;57543;45.442;9.212;2023-07-24T17:56:24;11.52;;;6.60;;
70169;SDS011;57543;45.442;9.212;2023-07-24T17:59:29;11.98;;;6.45;;
70169;SDS011;57543;45.442;9.212;2023-07-24T18:02:33;11.65;;;6.43;;
70169;SDS011;57543;45.442;9.212;2023-07-24T18:05:37;19.10;;;8.27;;
70169;SDS011;57543;45.442;9.212;2023-07-24T18:08:40;13.88;;;6.20;;
70169;SDS011;57543;45.442;9.212;2023-07-24T18:11:44;11.60;;;6.35;;
70169;SDS011;57543;45.442;9.212;2023-07-24T18:14:48;11.25;;;6.38;;
70169;SDS011;57543;45.442;9.212;2023-07-24T18:17:52;10.85;;;5.65;;